sensor_id;sensor_type;location;lat;lon;timestamp;P1;durP1;ratioP1;P2;durP2;ratioP2
13564;SDS011;6854;48.096;11.278;2023-05-23T04:50:40;31.37;;;23.10;;
13564;SDS011;6854;48.096;11.278;2023-05-23T04:53:06;36.33;;;22.60;;
13564;SDS011;6854;48.096;11.278;2023-05-23T04:55:33;32.90;;;21.50;;
13564;SDS011;6854;48.096;11.278;2023-05-23T04:58:00;34.37;;;20.20;;
13564;SDS011;6854;48.096;11.278;2023-05-23T05:00:27;35.90;;;22.80;;
13564;SDS011;6854;48.096;11.278;2023-05-23T05:02:54;33.40;;;21.70;;
13564;SDS011;6854;48.096;11.278;2023-05-23T05:05:23;30.20;;;22.17;;
13564;SDS011;6854;48.096;11.278;2023-05-23T05:07:49;41.27;;;22.07;;
13564;SDS011;6854;48.096;11.278;2023-05-23T05:10:18;35.70;;;22.10;;
13564;SDS011;6854;48.096;11.278;2023-05-23T05:12:47;31.40;;;20.80;;
13564;SDS011;6854;48.096;11.278;2023-05-23T05:15:14;30.73;;;20.70;;
13564;SDS011;6854;48.096;11.278;2023-05-23T05:17:41;28.80;;;19.10;;
13564;SDS011;6854;48.096;11.278;2023-05-23T05:20:07;27.97;;;19.90;;
13564;SDS011;6854;48.096;11.278;2023-05-23T05:22:35;29.93;;;19.57;;
13564;SDS011;6854;48.096;11.278;2023-05-23T05:25:01;31.50;;;19.37;;
13564;SDS011;6854;48.096;11.278;2023-05-23T05:27:28;33.87;;;18.60;;
13564;SDS011;6854;48.096;11.278;2023-05-23T05:29:54;29.10;;;19.27;;
13564;SDS011;6854;48.096;11.278;2023-05-23T05:32:22;29.20;;;18.70;;
13564;SDS011;6854;48.096;11.278;2023-05-23T05:34:48;33.00;;;18.17;;
13564;SDS011;6854;48.096;11.278;2023-05-23T05:37:15;28.50;;;18.30;;
13564;SDS011;6854;48.096;11.278;2023-05-23T05:39:41;25.27;;;18.20;;
13564;SDS011;6854;48.096;11.278;2023-05-23T05:42:09;26.87;;;18.00;;
13564;SDS011;6854;48.096;11.278;2023-05-23T05:44:35;35.73;;;18.33;;
13564;SDS011;6854;48.096;11.278;2023-05-23T05:47:01;29.27;;;19.67;;
13564;SDS011;6854;48.096;11.278;2023-05-23T05:49:27;28.30;;;19.43;;
13564;SDS011;6854;48.096;11.278;2023-05-23T05:51:53;30.90;;;20.63;;
13564;SDS011;6854;48.096;11.278;2023-05-23T05:54:19;30.87;;;19.77;;
13564;SDS011;6854;48.096;11.278;2023-05-23T05:56:46;27.67;;;20.00;;
13564;SDS011;6854;48.096;11.278;2023-05-23T05:59:12;32.30;;;21.20;;
13564;SDS011;6854;48.096;11.278;2023-05-23T06:01:38;31.03;;;19.67;;
13564;SDS011;6854;48.096;11.278;2023-05-23T06:04:04;38.37;;;20.50;;
13564;SDS011;6854;48.096;11.278;2023-05-23T06:06:30;28.77;;;18.80;;
13564;SDS011;6854;48.096;11.278;2023-05-23T06:08:56;35.43;;;19.47;;
13564;SDS011;6854;48.096;11.278;2023-05-23T06:11:22;27.83;;;18.20;;
13564;SDS011;6854;48.096;11.278;2023-05-23T06:13:48;34.73;;;19.83;;
13564;SDS011;6854;48.096;11.278;2023-05-23T06:16:14;30.23;;;20.03;;
13564;SDS011;6854;48.096;11.278;2023-05-23T06:18:40;26.97;;;18.27;;
13564;SDS011;6854;48.096;11.278;2023-05-23T06:21:06;32.23;;;19.90;;
13564;SDS011;6854;48.096;11.278;2023-05-23T06:23:32;35.17;;;20.80;;
13564;SDS011;6854;48.096;11.278;2023-05-23T06:25:58;26.50;;;18.70;;
13564;SDS011;6854;48.096;11.278;2023-05-23T06:28:24;27.13;;;19.30;;
13564;SDS011;6854;48.096;11.278;2023-05-23T06:30:50;35.93;;;22.27;;
13564;SDS011;6854;48.096;11.278;2023-05-23T06:33:16;34.27;;;21.30;;
13564;SDS011;6854;48.096;11.278;2023-05-23T06:35:42;35.97;;;21.77;;
13564;SDS011;6854;48.096;11.278;2023-05-23T06:38:08;40.87;;;20.70;;
13564;SDS011;6854;48.096;11.278;2023-05-23T06:40:34;33.60;;;21.93;;
13564;SDS011;6854;48.096;11.278;2023-05-23T06:43:00;31.67;;;21.17;;
13564;SDS011;6854;48.096;11.278;2023-05-23T06:45:26;32.87;;;22.43;;
13564;SDS011;6854;48.096;11.278;2023-05-23T06:47:52;35.43;;;20.87;;
13564;SDS011;6854;48.096;11.278;2023-05-23T06:50:18;34.30;;;21.70;;
13564;SDS011;6854;48.096;11.278;2023-05-23T06:52:45;36.37;;;22.60;;
13564;SDS011;6854;48.096;11.278;2023-05-23T06:55:11;35.57;;;22.87;;
13564;SDS011;6854;48.096;11.278;2023-05-23T06:57:42;33.30;;;21.77;;
13564;SDS011;6854;48.096;11.278;2023-05-23T07:00:08;32.67;;;22.40;;
13564;SDS011;6854;48.096;11.278;2023-05-23T07:02:35;30.40;;;20.90;;
13564;SDS011;6854;48.096;11.278;2023-05-23T07:05:01;30.37;;;20.13;;
13564;SDS011;6854;48.096;11.278;2023-05-23T07:07:27;29.73;;;21.07;;
13564;SDS011;6854;48.096;11.278;2023-05-23T07:09:53;29.90;;;20.40;;
13564;SDS011;6854;48.096;11.278;2023-05-23T07:12:19;29.50;;;20.20;;
13564;SDS011;6854;48.096;11.278;2023-05-23T07:14:45;36.97;;;20.30;;
13564;SDS011;6854;48.096;11.278;2023-05-23T07:17:11;35.13;;;21.30;;
13564;SDS011;6854;48.096;11.278;2023-05-23T07:19:37;32.27;;;21.50;;
13564;SDS011;6854;48.096;11.278;2023-05-23T07:22:03;33.83;;;20.67;;
13564;SDS011;6854;48.096;11.278;2023-05-23T07:24:29;38.00;;;23.03;;
13564;SDS011;6854;48.096;11.278;2023-05-23T07:26:59;33.20;;;21.60;;
13564;SDS011;6854;48.096;11.278;2023-05-23T07:29:25;28.33;;;20.23;;
13564;SDS011;6854;48.096;11.278;2023-05-23T07:31:51;32.80;;;22.97;;
13564;SDS011;6854;48.096;11.278;2023-05-23T07:34:20;33.00;;;22.10;;
13564;SDS011;6854;48.096;11.278;2023-05-23T07:36:46;35.23;;;23.57;;
13564;SDS011;6854;48.096;11.278;2023-05-23T07:39:14;37.13;;;23.50;;
13564;SDS011;6854;48.096;11.278;2023-05-23T07:41:47;36.07;;;24.03;;
13564;SDS011;6854;48.096;11.278;2023-05-23T07:44:14;39.17;;;24.13;;
13564;SDS011;6854;48.096;11.278;2023-05-23T07:46:40;38.77;;;24.53;;
13564;SDS011;6854;48.096;11.278;2023-05-23T07:49:06;41.00;;;23.23;;
13564;SDS011;6854;48.096;11.278;2023-05-23T07:51:32;39.07;;;24.40;;
13564;SDS011;6854;48.096;11.278;2023-05-23T07:53:58;30.70;;;20.67;;
13564;SDS011;6854;48.096;11.278;2023-05-23T07:56:24;41.60;;;25.13;;
13564;SDS011;6854;48.096;11.278;2023-05-23T07:58:52;47.20;;;27.40;;
13564;SDS011;6854;48.096;11.278;2023-05-23T08:01:18;40.23;;;26.23;;
13564;SDS011;6854;48.096;11.278;2023-05-23T08:03:44;34.77;;;22.73;;
13564;SDS011;6854;48.096;11.278;2023-05-23T08:06:10;50.10;;;24.33;;
13564;SDS011;6854;48.096;11.278;2023-05-23T10:08:43;43.83;;;26.30;;
13564;SDS011;6854;48.096;11.278;2023-05-23T11:01:06;26.55;;;18.80;;
13564;SDS011;6854;48.096;11.278;2023-05-23T11:16:39;18.75;;;13.80;;
13564;SDS011;6854;48.096;11.278;2023-05-23T12:52:51;20.60;;;14.00;;
13564;SDS011;6854;48.096;11.278;2023-05-23T13:08:25;23.77;;;15.50;;
13564;SDS011;6854;48.096;11.278;2023-05-23T13:14:30;16.77;;;12.68;;
13564;SDS011;6854;48.096;11.278;2023-05-23T13:20:02;18.85;;;13.07;;
13564;SDS011;6854;48.096;11.278;2023-05-23T14:36:11;16.23;;;13.00;;
13564;SDS011;6854;48.096;11.278;2023-05-23T14:38:48;16.38;;;13.77;;
13564;SDS011;6854;48.096;11.278;2023-05-23T14:45:08;17.42;;;14.00;;
13564;SDS011;6854;48.096;11.278;2023-05-23T14:54:15;19.47;;;12.80;;
13564;SDS011;6854;48.096;11.278;2023-05-23T15:09:19;17.13;;;12.53;;
13564;SDS011;6854;48.096;11.278;2023-05-23T15:12:49;26.40;;;11.83;;
13564;SDS011;6854;48.096;11.278;2023-05-23T15:36:38;14.27;;;11.40;;
13564;SDS011;6854;48.096;11.278;2023-05-23T16:13:17;17.70;;;9.57;;
13564;SDS011;6854;48.096;11.278;2023-05-23T16:31:53;17.13;;;8.70;;
13564;SDS011;6854;48.096;11.278;2023-05-23T16:47:04;9.73;;;7.40;;
13564;SDS011;6854;48.096;11.278;2023-05-23T17:05:14;7.43;;;5.27;;
13564;SDS011;6854;48.096;11.278;2023-05-23T17:08:29;7.27;;;5.57;;
13564;SDS011;6854;48.096;11.278;2023-05-23T17:14:23;8.50;;;5.50;;
13564;SDS011;6854;48.096;11.278;2023-05-23T17:17:00;7.80;;;4.90;;
13564;SDS011;6854;48.096;11.278;2023-05-23T17:19:51;6.17;;;4.70;;
13564;SDS011;6854;48.096;11.278;2023-05-23T17:26:06;6.33;;;4.40;;
13564;SDS011;6854;48.096;11.278;2023-05-23T17:47:13;6.90;;;3.80;;
13564;SDS011;6854;48.096;11.278;2023-05-23T17:49:41;7.23;;;3.90;;
13564;SDS011;6854;48.096;11.278;2023-05-23T18:10:19;4.83;;;3.10;;
13564;SDS011;6854;48.096;11.278;2023-05-23T18:16:34;5.37;;;3.37;;
13564;SDS011;6854;48.096;11.278;2023-05-23T18:34:11;4.00;;;3.00;;
13564;SDS011;6854;48.096;11.278;2023-05-23T18:40:34;5.47;;;3.10;;
13564;SDS011;6854;48.096;11.278;2023-05-23T18:43:00;8.50;;;2.87;;
13564;SDS011;6854;48.096;11.278;2023-05-23T18:45:26;6.00;;;3.43;;
13564;SDS011;6854;48.096;11.278;2023-05-23T18:47:52;3.43;;;2.83;;
13564;SDS011;6854;48.096;11.278;2023-05-23T18:50:18;5.63;;;2.93;;
13564;SDS011;6854;48.096;11.278;2023-05-23T18:52:44;4.00;;;2.80;;
13564;SDS011;6854;48.096;11.278;2023-05-23T18:55:11;8.90;;;3.40;;
13564;SDS011;6854;48.096;11.278;2023-05-23T18:57:37;3.47;;;2.70;;
13564;SDS011;6854;48.096;11.278;2023-05-23T19:00:04;9.50;;;3.50;;
13564;SDS011;6854;48.096;11.278;2023-05-23T19:02:31;3.90;;;3.07;;
13564;SDS011;6854;48.096;11.278;2023-05-23T19:04:57;6.23;;;3.50;;
13564;SDS011;6854;48.096;11.278;2023-05-23T19:07:23;4.87;;;3.33;;
13564;SDS011;6854;48.096;11.278;2023-05-23T19:09:49;5.80;;;3.07;;
13564;SDS011;6854;48.096;11.278;2023-05-23T19:12:15;6.03;;;3.17;;
13564;SDS011;6854;48.096;11.278;2023-05-23T19:14:41;24.43;;;3.47;;
13564;SDS011;6854;48.096;11.278;2023-05-23T19:17:07;8.20;;;3.80;;
13564;SDS011;6854;48.096;11.278;2023-05-23T19:19:33;4.00;;;3.03;;
